createdAt,value
2017-09-20T00:01:55.671Z,89.40
2017-09-20T00:04:23.951Z,89.20
2017-09-20T00:06:52.239Z,89.40
2017-09-20T00:09:20.521Z,89.50
2017-09-20T00:11:48.780Z,89.90
2017-09-20T00:14:17.105Z,90.10
2017-09-20T00:16:45.454Z,90.10
2017-09-20T00:19:13.754Z,90.20
2017-09-20T00:21:42.015Z,90.30
2017-09-20T00:24:10.293Z,90.40
2017-09-20T00:26:38.605Z,90.50
2017-09-20T00:29:06.864Z,90.50
2017-09-20T00:31:35.144Z,90.50
2017-09-20T00:34:03.433Z,90.40
2017-09-20T00:36:31.705Z,90.30
2017-09-20T00:38:59.973Z,90.40
2017-09-20T00:41:28.232Z,90.60
2017-09-20T00:43:56.501Z,90.50
2017-09-20T00:46:25.543Z,90.50
2017-09-20T00:48:53.940Z,90.50
2017-09-20T00:51:22.309Z,90.50
2017-09-20T00:53:50.555Z,90.60
2017-09-20T00:56:18.830Z,90.70
2017-09-20T00:58:47.868Z,91.00
2017-09-20T01:01:16.154Z,90.90
2017-09-20T01:03:44.429Z,91.00
2017-09-20T01:06:12.695Z,90.80
2017-09-20T01:08:40.958Z,90.80
2017-09-20T01:11:09.264Z,91.00
2017-09-20T02:27:54.154Z,92.30
2017-09-20T02:30:23.179Z,92.20
2017-09-20T02:32:51.452Z,92.20
2017-09-20T02:35:19.708Z,92.00
2017-09-20T02:37:48.005Z,92.00
2017-09-20T02:40:16.276Z,92.10
2017-09-20T02:42:44.543Z,92.20
2017-09-20T02:45:13.567Z,92.20
2017-09-20T02:47:41.864Z,92.10
2017-09-20T02:50:10.143Z,92.40
2017-09-20T02:52:38.424Z,92.50
2017-09-20T02:55:06.678Z,92.40
2017-09-20T02:57:34.949Z,91.70
2017-09-20T03:00:03.263Z,91.70
2017-09-20T03:02:31.554Z,91.80
2017-09-20T03:04:59.811Z,92.10
2017-09-20T03:07:28.078Z,92.30
2017-09-20T03:09:56.367Z,92.70
2017-09-20T03:12:24.670Z,93.00
2017-09-20T03:14:52.960Z,93.20
2017-09-20T03:17:21.214Z,93.30
2017-09-20T03:19:49.487Z,93.40
2017-09-20T03:22:17.748Z,93.50
2017-09-20T03:24:46.771Z,93.80
2017-09-20T03:27:15.074Z,93.70
2017-09-20T03:29:43.355Z,93.90
2017-09-20T03:32:11.641Z,93.90
2017-09-20T03:34:40.029Z,93.90
2017-09-20T03:37:08.281Z,93.80
2017-09-20T03:39:36.550Z,93.60
2017-09-20T03:42:04.907Z,93.50
2017-09-20T03:44:33.965Z,93.30
2017-09-20T03:47:02.216Z,93.30
2017-09-20T03:49:30.561Z,93.40
2017-09-20T03:51:59.043Z,93.20
2017-09-20T03:54:27.323Z,93.20
2017-09-20T03:56:55.563Z,93.10
2017-09-20T03:59:24.007Z,93.10
2017-09-20T04:01:53.847Z,93.00
2017-09-20T04:04:22.117Z,93.00
2017-09-20T04:06:51.127Z,93.00
2017-09-20T04:09:19.439Z,93.00
2017-09-20T04:11:47.692Z,93.00
2017-09-20T04:14:15.998Z,93.00
2017-09-20T04:16:44.261Z,93.00
2017-09-20T04:19:12.518Z,92.90
2017-09-20T04:21:41.575Z,92.60
2017-09-20T04:24:09.842Z,92.60
2017-09-20T04:26:38.136Z,92.70
2017-09-20T04:29:06.427Z,92.90
2017-09-20T04:31:34.707Z,93.00
2017-09-20T04:34:03.074Z,93.10
2017-09-20T04:36:31.351Z,93.20
2017-09-20T04:38:59.660Z,93.20
2017-09-20T04:41:28.012Z,93.60
2017-09-20T04:43:56.268Z,93.40
2017-09-20T04:46:24.798Z,93.40
2017-09-20T04:48:53.079Z,93.50
2017-09-20T04:51:21.349Z,93.50
2017-09-20T04:53:49.594Z,93.40
2017-09-20T04:56:17.871Z,93.40
2017-09-20T04:58:46.215Z,93.20
2017-09-20T05:01:14.562Z,93.20
2017-09-20T05:03:42.865Z,93.20
2017-09-20T05:06:11.162Z,93.10
2017-09-20T05:08:39.406Z,93.10
2017-09-20T05:11:07.706Z,93.10
2017-09-20T05:13:35.966Z,93.20
2017-09-20T05:16:04.235Z,93.10
2017-09-20T05:18:32.490Z,93.10
2017-09-20T05:21:01.636Z,93.20
2017-09-20T05:23:29.985Z,93.20
2017-09-20T05:25:58.341Z,93.30
2017-09-20T05:28:26.609Z,93.30
2017-09-20T05:30:54.899Z,93.30
2017-09-20T05:33:23.242Z,93.30
2017-09-20T05:35:51.537Z,93.30
2017-09-20T05:38:19.805Z,93.20
2017-09-20T05:40:48.083Z,93.10
2017-09-20T05:43:16.476Z,93.10
2017-09-20T05:45:44.735Z,93.20
2017-09-20T05:48:13.002Z,93.20
2017-09-20T05:50:41.647Z,93.20
2017-09-20T05:53:10.749Z,93.40
2017-09-20T05:55:39.094Z,93.30
2017-09-20T05:58:07.488Z,93.30
2017-09-20T06:00:35.715Z,93.30
2017-09-20T06:03:04.109Z,93.40
2017-09-20T06:05:32.372Z,93.40
2017-09-20T06:08:00.713Z,93.30
2017-09-20T06:10:28.999Z,93.20
2017-09-20T06:12:57.247Z,93.20
2017-09-20T06:15:25.558Z,93.10
2017-09-20T06:17:53.825Z,93.20
2017-09-20T06:20:22.115Z,93.10
2017-09-20T06:22:50.404Z,93.10
2017-09-20T06:25:18.650Z,93.20
2017-09-20T06:27:46.940Z,93.10
2017-09-20T06:30:15.252Z,93.20
2017-09-20T06:32:43.533Z,93.00
2017-09-20T06:35:11.783Z,93.10
2017-09-20T06:37:40.056Z,92.90
2017-09-20T06:40:08.322Z,93.20
2017-09-20T06:42:37.381Z,93.20
2017-09-20T06:45:05.634Z,93.20
2017-09-20T06:47:33.891Z,93.30
2017-09-20T06:50:02.172Z,93.50
2017-09-20T06:52:30.433Z,93.50
2017-09-20T06:54:59.482Z,93.40
2017-09-20T06:57:27.743Z,93.10
2017-09-20T06:59:56.775Z,92.70
2017-09-20T07:02:25.018Z,92.70
2017-09-20T07:04:53.296Z,92.60
2017-09-20T07:07:21.611Z,92.60
2017-09-20T07:09:49.922Z,92.40
2017-09-20T07:12:18.202Z,92.30
2017-09-20T07:14:46.452Z,92.00
2017-09-20T07:17:14.719Z,92.00
2017-09-20T07:19:42.988Z,91.90
2017-09-20T07:22:11.300Z,91.70
2017-09-20T07:24:39.584Z,91.50
2017-09-20T07:27:07.831Z,91.50
2017-09-20T07:29:36.114Z,91.50
2017-09-20T07:32:04.388Z,91.60
2017-09-20T07:34:32.947Z,91.70
2017-09-20T07:37:02.106Z,91.50
2017-09-20T07:39:30.430Z,91.50
2017-09-20T07:41:58.795Z,91.40
2017-09-20T07:44:27.870Z,91.50
2017-09-20T07:46:56.208Z,91.50
2017-09-20T07:49:24.546Z,91.70
2017-09-20T07:51:53.853Z,91.90
2017-09-20T07:54:22.098Z,91.90
2017-09-20T07:56:50.371Z,91.90
2017-09-20T07:59:18.926Z,91.90
2017-09-20T08:01:47.312Z,91.80
2017-09-20T08:04:15.610Z,91.80
2017-09-20T08:06:44.663Z,91.60
2017-09-20T08:09:12.957Z,91.50
2017-09-20T08:11:41.273Z,91.50
2017-09-20T08:14:09.598Z,91.40
2017-09-20T08:16:37.916Z,91.60
2017-09-20T08:19:06.190Z,91.20
2017-09-20T08:21:34.475Z,91.50
2017-09-20T08:24:04.295Z,92.00
2017-09-20T08:26:33.360Z,91.90
2017-09-20T08:29:01.782Z,91.90
2017-09-20T08:31:30.038Z,91.90
2017-09-20T08:33:58.290Z,91.80
2017-09-20T08:36:26.555Z,92.00
2017-09-20T08:38:54.823Z,91.90
2017-09-20T08:41:23.852Z,92.00
2017-09-20T08:43:52.111Z,92.00
2017-09-20T08:46:21.158Z,92.10
2017-09-20T08:48:49.424Z,91.80
2017-09-20T08:51:17.706Z,91.70
2017-09-20T08:53:45.984Z,91.80
2017-09-20T08:56:14.270Z,91.70
2017-09-20T08:58:42.548Z,91.60
2017-09-20T09:01:10.827Z,91.60
2017-09-20T09:03:39.110Z,91.90
2017-09-20T09:06:07.370Z,91.90
2017-09-20T09:08:35.648Z,91.80
2017-09-20T09:11:03.908Z,91.70
2017-09-20T09:13:32.954Z,91.60
2017-09-20T09:16:01.194Z,91.60
2017-09-20T09:18:30.248Z,91.40
2017-09-20T09:20:58.509Z,91.40
2017-09-20T09:23:26.775Z,91.50
2017-09-20T09:25:55.077Z,91.20
2017-09-20T09:28:23.337Z,91.00
2017-09-20T09:30:51.595Z,91.00
2017-09-20T09:33:20.630Z,90.50
2017-09-20T09:35:48.881Z,90.50
2017-09-20T09:38:17.213Z,90.00
2017-09-20T09:40:45.474Z,89.70
2017-09-20T09:43:13.929Z,88.70
2017-09-20T09:45:42.962Z,88.10
2017-09-20T09:48:11.236Z,88.10
2017-09-20T09:50:39.491Z,87.50
2017-09-20T09:53:07.746Z,86.50
2017-09-20T09:55:39.846Z,86.20
2017-09-20T09:58:08.118Z,86.30
2017-09-20T10:00:37.149Z,85.80
2017-09-20T10:03:05.416Z,85.70
2017-09-20T10:05:33.660Z,85.60
2017-09-20T10:08:02.725Z,86.00
2017-09-20T10:10:30.971Z,86.00
2017-09-20T10:12:59.276Z,85.80
2017-09-20T10:15:27.528Z,85.40
2017-09-20T10:17:56.751Z,84.90
2017-09-20T10:20:25.044Z,84.50
2017-09-20T10:22:53.318Z,85.10
2017-09-20T10:25:21.575Z,85.50
2017-09-20T10:27:49.871Z,85.50
2017-09-20T10:30:18.155Z,85.40
2017-09-20T10:32:46.407Z,86.20
2017-09-20T10:35:14.676Z,86.60
2017-09-20T10:37:43.692Z,87.80
2017-09-20T10:40:12.751Z,87.90
2017-09-20T10:42:41.003Z,87.90
2017-09-20T10:45:09.268Z,87.90
2017-09-20T10:47:37.552Z,88.40
2017-09-20T10:50:05.835Z,88.00
2017-09-20T10:52:34.083Z,88.60
2017-09-20T10:55:02.367Z,88.10
2017-09-20T10:57:31.510Z,87.60
2017-09-20T10:59:59.783Z,87.60
2017-09-20T11:02:28.056Z,88.50
2017-09-20T11:04:56.326Z,88.50
2017-09-20T11:07:24.863Z,88.10
2017-09-20T11:09:53.142Z,88.80
2017-09-20T11:12:21.492Z,88.00
2017-09-20T11:14:49.754Z,88.40
2017-09-20T11:17:18.055Z,88.10
2017-09-20T11:19:46.435Z,86.70
2017-09-20T11:22:14.717Z,86.50
2017-09-20T11:24:43.030Z,86.90
2017-09-20T11:27:11.282Z,86.60
2017-09-20T11:29:39.532Z,86.10
2017-09-20T11:32:07.839Z,85.60
2017-09-20T11:34:36.088Z,84.90
2017-09-20T11:37:04.393Z,84.80
2017-09-20T11:39:32.639Z,84.30
2017-09-20T11:42:01.671Z,82.40
2017-09-20T11:44:29.927Z,82.40
2017-09-20T11:46:58.226Z,82.90
2017-09-20T11:49:26.511Z,82.10
2017-09-20T11:51:54.807Z,82.80
2017-09-20T11:54:23.079Z,82.20
2017-09-20T11:56:51.346Z,81.70
2017-09-20T11:59:19.634Z,81.40
2017-09-20T12:01:47.902Z,81.10
2017-09-20T12:04:16.264Z,80.60
2017-09-20T12:06:45.405Z,80.30
2017-09-20T12:09:13.682Z,80.30
2017-09-20T12:11:41.962Z,80.80
2017-09-20T12:14:10.219Z,81.70
2017-09-20T12:16:38.510Z,83.00
2017-09-20T12:19:06.752Z,82.70
2017-09-20T12:21:35.129Z,83.50
2017-09-20T12:24:03.367Z,84.60
2017-09-20T12:26:31.638Z,87.00
2017-09-20T12:28:59.908Z,88.10
2017-09-20T12:31:28.931Z,89.40
2017-09-20T12:33:57.211Z,89.40
2017-09-20T12:36:25.535Z,89.50
2017-09-20T12:38:53.770Z,90.00
2017-09-20T12:41:22.015Z,90.80
2017-09-20T12:43:51.050Z,90.70
2017-09-20T12:46:19.307Z,90.70
2017-09-20T12:48:47.618Z,90.50
2017-09-20T12:51:15.890Z,89.70
2017-09-20T12:53:44.163Z,89.70
2017-09-20T12:56:12.410Z,90.70
2017-09-20T12:58:41.442Z,89.20
2017-09-20T13:01:09.691Z,89.20
2017-09-20T13:03:38.734Z,87.70
2017-09-20T13:06:06.986Z,87.70
2017-09-20T13:08:35.299Z,86.70
2017-09-20T13:11:03.578Z,87.30
2017-09-20T13:13:32.564Z,86.80
2017-09-20T13:16:00.831Z,88.10
2017-09-20T13:18:29.079Z,88.20
2017-09-20T13:20:57.419Z,87.50
2017-09-20T13:23:25.671Z,88.60
2017-09-20T13:25:54.079Z,90.20
2017-09-20T13:28:22.338Z,89.60
2017-09-20T13:30:50.779Z,88.60
2017-09-20T13:33:19.848Z,89.20
2017-09-20T13:35:48.130Z,89.20
2017-09-20T13:38:16.405Z,88.80
2017-09-20T13:40:46.258Z,87.50
2017-09-20T13:43:14.497Z,87.60
2017-09-20T13:45:42.783Z,86.10
2017-09-20T13:48:11.071Z,85.10
2017-09-20T13:50:39.392Z,84.80
2017-09-20T13:53:07.736Z,84.50
2017-09-20T13:55:36.515Z,84.60
2017-09-20T13:58:04.765Z,85.00
2017-09-20T14:00:33.807Z,85.70
2017-09-20T14:03:02.190Z,85.70
2017-09-20T14:05:30.533Z,86.00
2017-09-20T14:07:59.664Z,85.90
2017-09-20T14:10:27.918Z,85.90
2017-09-20T14:12:56.951Z,85.20
2017-09-20T14:15:25.231Z,85.20
2017-09-20T14:17:53.495Z,84.30
2017-09-20T14:20:21.764Z,84.40
2017-09-20T14:22:50.798Z,83.90
2017-09-20T14:25:19.215Z,84.00
2017-09-20T14:27:47.504Z,84.00
2017-09-20T14:30:17.255Z,85.50
2017-09-20T14:32:45.576Z,85.50
2017-09-20T14:35:13.820Z,85.60
2017-09-20T14:37:42.100Z,85.90
2017-09-20T14:40:10.365Z,85.70
2017-09-20T14:42:39.510Z,84.20
2017-09-20T14:45:07.767Z,84.20
2017-09-20T14:47:36.034Z,85.30
2017-09-20T14:50:04.288Z,84.70
2017-09-20T14:52:32.562Z,84.70
2017-09-20T14:55:00.944Z,85.00
2017-09-20T14:57:29.291Z,86.00
2017-09-20T14:59:57.568Z,84.70
2017-09-20T15:02:25.865Z,84.90
2017-09-20T15:04:54.111Z,85.10
2017-09-20T15:07:22.381Z,84.80
2017-09-20T15:09:51.443Z,84.10
2017-09-20T15:12:19.798Z,83.90
2017-09-20T15:14:48.064Z,84.00
2017-09-20T15:17:16.493Z,82.90
2017-09-20T15:19:44.849Z,82.80
2017-09-20T15:22:13.104Z,82.30
2017-09-20T15:24:41.404Z,82.90
2017-09-20T15:27:09.657Z,83.30
2017-09-20T15:29:37.925Z,84.00
2017-09-20T15:32:07.223Z,82.60
2017-09-20T15:34:36.279Z,83.40
2017-09-20T15:37:04.590Z,83.40
2017-09-20T15:39:33.631Z,82.80
2017-09-20T15:42:01.883Z,82.80
2017-09-20T15:44:30.920Z,84.40
2017-09-20T15:46:59.345Z,84.40
2017-09-20T15:49:27.596Z,84.00
2017-09-20T15:51:55.869Z,83.80
2017-09-20T15:54:24.163Z,84.20
2017-09-20T15:56:52.414Z,84.40
2017-09-20T15:59:20.723Z,84.70
2017-09-20T16:01:48.966Z,85.10
2017-09-20T16:04:17.226Z,83.70
2017-09-20T16:06:45.491Z,83.00
2017-09-20T16:09:13.735Z,81.50
2017-09-20T16:11:42.006Z,82.40
2017-09-20T16:14:10.320Z,83.00
2017-09-20T16:16:38.590Z,82.30
2017-09-20T16:19:06.850Z,82.20
2017-09-20T16:21:35.150Z,82.60
2017-09-20T16:24:03.408Z,81.40
2017-09-20T16:26:31.680Z,81.20
2017-09-20T16:28:59.936Z,81.50
2017-09-20T16:31:28.972Z,81.70
2017-09-20T16:33:57.224Z,81.00
2017-09-20T16:36:26.951Z,81.80
2017-09-20T16:38:55.958Z,82.10
2017-09-20T16:41:24.218Z,82.00
2017-09-20T16:43:53.241Z,82.70
2017-09-20T16:46:21.539Z,82.70
2017-09-20T16:48:49.796Z,83.10
2017-09-20T16:51:18.063Z,83.50
2017-09-20T16:53:47.091Z,85.00
2017-09-20T16:56:15.351Z,84.90
2017-09-20T16:58:43.622Z,85.20
2017-09-20T17:01:12.647Z,85.90
2017-09-20T17:03:40.885Z,86.60
2017-09-20T17:06:11.167Z,86.80
2017-09-20T17:08:39.410Z,86.80
2017-09-20T17:11:08.431Z,87.30
2017-09-20T17:13:36.679Z,87.10
2017-09-20T17:16:05.718Z,86.50
2017-09-20T17:18:34.002Z,86.20
2017-09-20T17:21:02.278Z,86.40
2017-09-20T17:23:30.575Z,86.80
2017-09-20T17:25:58.831Z,86.90
2017-09-20T17:28:27.126Z,86.90
2017-09-20T17:30:55.422Z,87.00
2017-09-20T17:33:23.688Z,87.40
2017-09-20T17:35:51.931Z,87.50
2017-09-20T17:38:21.015Z,87.80
2017-09-20T17:40:49.245Z,87.80
2017-09-20T17:43:17.500Z,88.20
2017-09-20T17:45:45.754Z,88.60
2017-09-20T17:48:14.781Z,89.00
2017-09-20T17:50:43.088Z,88.60
2017-09-20T17:53:11.364Z,88.80
2017-09-20T17:55:39.618Z,89.00
2017-09-20T17:58:07.938Z,89.30
2017-09-20T18:00:36.207Z,89.50
2017-09-20T18:03:04.466Z,89.80
2017-09-20T18:05:32.726Z,89.60
2017-09-20T18:08:01.751Z,90.00
2017-09-20T18:10:30.011Z,90.00
2017-09-20T18:12:59.038Z,90.20
2017-09-20T18:15:27.290Z,90.20
2017-09-20T18:17:56.446Z,90.30
2017-09-20T18:20:24.694Z,90.30
2017-09-20T18:22:52.996Z,90.40
2017-09-20T18:25:21.282Z,90.60
2017-09-20T18:27:49.560Z,90.60
2017-09-20T18:30:17.834Z,90.80
2017-09-20T18:32:46.082Z,90.80
2017-09-20T18:35:14.366Z,90.90
2017-09-20T18:37:43.382Z,91.10
2017-09-20T18:40:11.651Z,91.10
2017-09-20T18:42:39.964Z,91.10
2017-09-20T18:45:08.235Z,91.10
2017-09-20T18:47:36.478Z,91.10
2017-09-20T18:50:05.515Z,91.30
2017-09-20T18:52:33.794Z,91.30
2017-09-20T18:55:02.078Z,91.50
2017-09-20T18:57:30.330Z,91.60
2017-09-20T18:59:58.593Z,91.70
2017-09-20T19:02:27.610Z,91.90
2017-09-20T19:04:55.893Z,91.90
2017-09-20T19:07:24.211Z,91.90
2017-09-20T19:09:52.501Z,91.90
2017-09-20T19:12:20.769Z,92.00
2017-09-20T19:14:49.035Z,92.10
2017-09-20T19:17:17.282Z,92.20
2017-09-20T19:19:45.555Z,92.40
2017-09-20T19:22:14.574Z,92.30
2017-09-20T19:24:42.837Z,92.30
2017-09-20T19:27:11.846Z,92.50
2017-09-20T19:29:40.114Z,92.50
2017-09-20T19:32:09.135Z,92.60
2017-09-20T19:34:37.401Z,92.60
2017-09-20T19:37:06.420Z,92.50
2017-09-20T19:39:34.695Z,92.60
2017-09-20T19:42:02.978Z,92.70
2017-09-20T19:44:31.280Z,92.70
2017-09-20T19:46:59.654Z,92.80
2017-09-20T19:49:27.940Z,92.70
2017-09-20T19:51:56.215Z,92.80
2017-09-20T19:54:24.461Z,92.80
2017-09-20T19:56:53.495Z,92.80
2017-09-20T19:59:21.750Z,92.80
2017-09-20T20:01:53.148Z,92.70
2017-09-20T20:04:22.041Z,92.70
2017-09-20T20:06:50.308Z,92.80
2017-09-20T20:09:18.560Z,92.80
2017-09-20T20:11:47.611Z,93.00
2017-09-20T20:14:15.895Z,93.00
2017-09-20T20:16:44.163Z,92.90
2017-09-20T20:19:12.419Z,92.90
2017-09-20T20:21:40.726Z,93.00
2017-09-20T20:24:08.979Z,93.00
2017-09-20T20:26:37.243Z,93.00
2017-09-20T20:29:06.292Z,93.20
2017-09-20T20:31:34.550Z,93.20
2017-09-20T20:34:02.872Z,93.20
2017-09-20T20:36:31.124Z,93.10
2017-09-20T20:38:59.390Z,93.20
2017-09-20T20:41:28.505Z,93.20
2017-09-20T20:43:56.799Z,93.10
2017-09-20T20:46:25.078Z,93.10
2017-09-20T20:48:53.349Z,93.10
2017-09-20T20:51:21.630Z,93.10
2017-09-20T20:53:49.943Z,93.00
2017-09-20T20:56:18.976Z,93.00
2017-09-20T20:58:48.012Z,92.90
2017-09-20T21:01:16.305Z,92.90
2017-09-20T21:03:44.581Z,93.10
2017-09-20T21:06:12.836Z,93.20
2017-09-20T21:08:41.105Z,93.00
2017-09-20T21:11:10.117Z,92.60
2017-09-20T21:13:38.391Z,92.60
2017-09-20T21:16:06.651Z,92.50
2017-09-20T21:18:35.683Z,92.40
2017-09-20T21:21:03.939Z,92.40
2017-09-20T21:23:33.672Z,92.60
2017-09-20T21:26:01.979Z,92.60
2017-09-20T21:28:30.256Z,92.60
2017-09-20T21:30:58.514Z,92.70
2017-09-20T21:33:26.819Z,92.80
2017-09-20T21:35:55.076Z,92.90
2017-09-20T21:38:23.339Z,93.10
2017-09-20T21:40:52.351Z,93.30
2017-09-20T21:43:21.230Z,93.30
2017-09-20T21:45:50.272Z,93.40
2017-09-20T21:48:18.557Z,93.40
2017-09-20T21:50:46.810Z,93.50
2017-09-20T21:53:15.083Z,93.50
2017-09-20T21:55:44.101Z,93.60
2017-09-20T21:58:12.365Z,93.60
2017-09-20T22:00:40.676Z,93.70
2017-09-20T22:03:08.966Z,93.70
2017-09-20T22:05:37.241Z,93.60
2017-09-20T22:08:05.514Z,93.70
2017-09-20T22:10:33.807Z,93.80
2017-09-20T22:13:02.056Z,93.90
2017-09-20T22:15:42.450Z,94.00
2017-09-20T22:18:29.471Z,94.30
2017-09-20T22:21:15.542Z,94.30
2017-09-20T22:24:01.760Z,94.30
2017-09-20T22:26:44.555Z,94.40
2017-09-20T22:29:12.587Z,94.60
2017-09-20T22:31:40.856Z,94.60
2017-09-20T22:34:09.140Z,94.80
2017-09-20T22:36:37.440Z,94.90
2017-09-20T22:39:05.724Z,94.80
2017-09-20T22:41:33.993Z,94.70
2017-09-20T22:44:02.263Z,94.50
2017-09-20T22:46:30.553Z,94.40
2017-09-20T22:48:58.924Z,94.40
2017-09-20T22:51:27.192Z,94.40
2017-09-20T22:53:55.474Z,94.40
2017-09-20T22:56:23.739Z,94.50
2017-09-20T22:58:52.038Z,94.60
2017-09-20T23:01:20.320Z,94.70
2017-09-20T23:03:48.583Z,94.70
2017-09-20T23:06:16.892Z,94.70
2017-09-20T23:08:45.168Z,94.70
2017-09-20T23:11:13.438Z,94.80
2017-09-20T23:13:41.695Z,94.80
2017-09-20T23:16:09.983Z,94.90
2017-09-20T23:18:38.295Z,94.90
2017-09-20T23:21:06.570Z,94.90
2017-09-20T23:23:34.815Z,94.90
2017-09-20T23:26:03.855Z,94.90
2017-09-20T23:28:32.116Z,94.90
2017-09-20T23:31:00.386Z,94.90
2017-09-20T23:33:28.640Z,94.70
2017-09-20T23:35:56.988Z,94.70
2017-09-20T23:38:25.263Z,94.70
2017-09-20T23:40:53.579Z,94.90
2017-09-20T23:43:21.841Z,94.90
2017-09-20T23:45:50.111Z,94.90
2017-09-20T23:48:18.396Z,95.00
2017-09-20T23:50:47.332Z,94.90
2017-09-20T23:53:16.402Z,95.10
2017-09-20T23:55:44.772Z,95.10
2017-09-20T23:58:13.038Z,95.10
